Ammansville, Texas
Current Conditions -  °F | °C
As of 4:15 PM on Sunday 25 Jan 2015 (Local Time) from K3T5 Reporting Station
Clear Clear  
Wind Chill: 21°   Ceiling: Unl
Heat Index: 21°   Visibility: 10mi
Dew Point:   Wind: 9mph
Humidity: 34%   Direction: 330°NNW
Pressure: 30.07"   Gusts: NA
Location:  29.8569°N, 96.9311°W
Report Text: K3T5 252215Z AUTO 33008KT 10SM CLR 21/05 A3007 RMK AO2 T02110045
Loading
Personal Weather Stations






























Interactive Weather Map New forecast layout! Learn more

10-Day Weather Forecast

Advertisements
Track Severe Weather on mobile